This is the latest recevied weather packets stored in our database for station/object VA2DG-13. If no packets are shown the sender has not sent any weather packets the latest 10 day(s).
| Time | Temp. | Humidity | Pressure | Rain* | Wind** | Luminosity | Snow |
|---|---|---|---|---|---|---|---|
| 1777845906 | 12.22° C | 33% | 1004.7 hPa | 0 mm | - | - | - |
| 1777844105 | 11.67° C | 34% | 1004.9 hPa | 0 mm | - | - | - |
| 1777843806 | 11.67° C | 34% | 1004.9 hPa | 0 mm | - | - | - |
| 1777843505 | 12.22° C | 33% | 1005 hPa | 0 mm | - | - | - |
| 1777843206 | 11.67° C | 36% | 1004.8 hPa | 0 mm | - | - | - |
| 1777842306 | 11.67° C | 36% | 1004.9 hPa | 0 mm | - | - | - |
| 1777830605 | 10.56° C | 40% | 1006.6 hPa | 0 mm | - | - | - |
| 1777830305 | 10° C | 42% | 1006.6 hPa | 0 mm | - | - | - |
| 1777829406 | 10° C | 43% | 1006.6 hPa | 0 mm | - | - | - |
| 1777828505 | 10° C | 42% | 1006.7 hPa | 0 mm | - | - | - |
| 1777826105 | 10° C | 44% | 1007.4 hPa | 0 mm | - | - | - |
| 1777825805 | 10° C | 47% | 1007.4 hPa | 0 mm | - | - | - |
| 1777825206 | 9.44° C | 48% | 1007.7 hPa | 0 mm | - | - | - |
| 1777824005 | 8.89° C | 46% | 1008.1 hPa | 0 mm | - | - | - |
| 1777823706 | 9.44° C | 43% | 1007.8 hPa | 0 mm | - | - | - |
| 1777823105 | 9.44° C | 42% | 1008 hPa | 0 mm | - | - | - |
| 1777817405 | 8.33° C | 55% | 1008.8 hPa | 0 mm | - | - | - |
| 1777809906 | 6.67° C | 70% | 1009 hPa | 0 mm | - | - | - |
| 1777809005 | 6.67° C | 77% | 1009.2 hPa | 0 mm | - | - | - |
| 1777806905 | 3.89° C | 86% | 1009.1 hPa | 0 mm | - | - | - |
| 1777806305 | 3.33° C | 86% | 1009.1 hPa | 0 mm | - | - | - |
| 1777805705 | 3.33° C | 85% | 1009.1 hPa | 0 mm | - | - | - |
| 1777805105 | 2.78° C | 85% | 1009.1 hPa | 0 mm | - | - | - |
| 1777803006 | 3.33° C | 85% | 1008.8 hPa | 0 mm | - | - | - |
| 1777797905 | 3.33° C | 84% | 1009.2 hPa | 0 mm | - | - | - |
* Rain latest hour (hover to see other rain measurements)
** Current wind speed in m/s (hover to see current wind gust speed)